sensor_id;sensor_type;location;lat;lon;timestamp;temperature;humidity
2973;DHT22;1496;51.404;7.232;2022-12-28T00:01:17;5.40;99.90
2973;DHT22;1496;51.404;7.232;2022-12-28T00:03:44;5.40;99.90
2973;DHT22;1496;51.404;7.232;2022-12-28T00:06:12;5.40;99.90
2973;DHT22;1496;51.404;7.232;2022-12-28T00:08:39;5.40;99.90
2973;DHT22;1496;51.404;7.232;2022-12-28T00:11:09;5.50;99.90
2973;DHT22;1496;51.404;7.232;2022-12-28T00:13:37;5.50;99.90
2973;DHT22;1496;51.404;7.232;2022-12-28T00:18:44;5.50;99.90
2973;DHT22;1496;51.404;7.232;2022-12-28T00:21:10;5.50;99.90
2973;DHT22;1496;51.404;7.232;2022-12-28T00:23:37;5.60;99.90
2973;DHT22;1496;51.404;7.232;2022-12-28T00:26:06;5.60;99.90
2973;DHT22;1496;51.404;7.232;2022-12-28T00:28:35;5.60;99.90
2973;DHT22;1496;51.404;7.232;2022-12-28T00:31:01;5.60;99.90
2973;DHT22;1496;51.404;7.232;2022-12-28T00:33:28;5.60;99.90
2973;DHT22;1496;51.404;7.232;2022-12-28T00:35:55;5.70;99.90
2973;DHT22;1496;51.404;7.232;2022-12-28T00:38:26;5.80;99.90
2973;DHT22;1496;51.404;7.232;2022-12-28T00:40:53;5.80;99.90
2973;DHT22;1496;51.404;7.232;2022-12-28T00:43:19;5.80;99.90
2973;DHT22;1496;51.404;7.232;2022-12-28T00:45:47;5.80;99.90
2973;DHT22;1496;51.404;7.232;2022-12-28T00:48:15;5.80;99.90
2973;DHT22;1496;51.404;7.232;2022-12-28T00:50:42;5.80;99.90
2973;DHT22;1496;51.404;7.232;2022-12-28T00:53:10;5.70;99.90
2973;DHT22;1496;51.404;7.232;2022-12-28T00:55:37;5.70;99.90
2973;DHT22;1496;51.404;7.232;2022-12-28T00:58:06;5.60;99.90
2973;DHT22;1496;51.404;7.232;2022-12-28T01:00:33;5.50;99.90
2973;DHT22;1496;51.404;7.232;2022-12-28T01:03:00;5.50;99.90
2973;DHT22;1496;51.404;7.232;2022-12-28T01:05:26;5.40;99.90
2973;DHT22;1496;51.404;7.232;2022-12-28T01:07:53;5.40;99.90
2973;DHT22;1496;51.404;7.232;2022-12-28T01:10:19;5.30;99.90
2973;DHT22;1496;51.404;7.232;2022-12-28T01:12:47;5.30;99.90
2973;DHT22;1496;51.404;7.232;2022-12-28T01:15:13;5.30;99.90
2973;DHT22;1496;51.404;7.232;2022-12-28T01:17:40;5.30;99.90
2973;DHT22;1496;51.404;7.232;2022-12-28T01:20:08;5.30;99.90
2973;DHT22;1496;51.404;7.232;2022-12-28T01:22:35;5.30;99.90
2973;DHT22;1496;51.404;7.232;2022-12-28T01:25:01;5.30;99.90
2973;DHT22;1496;51.404;7.232;2022-12-28T01:27:28;5.40;99.90
2973;DHT22;1496;51.404;7.232;2022-12-28T01:29:55;5.40;99.90
2973;DHT22;1496;51.404;7.232;2022-12-28T01:32:22;5.40;99.90
2973;DHT22;1496;51.404;7.232;2022-12-28T01:34:48;5.40;99.90
2973;DHT22;1496;51.404;7.232;2022-12-28T01:37:14;5.40;99.90
2973;DHT22;1496;51.404;7.232;2022-12-28T01:39:41;5.40;99.90
2973;DHT22;1496;51.404;7.232;2022-12-28T01:42:16;5.40;99.90
2973;DHT22;1496;51.404;7.232;2022-12-28T01:44:48;5.40;1.00
2973;DHT22;1496;51.404;7.232;2022-12-28T01:47:17;5.30;1.00
2973;DHT22;1496;51.404;7.232;2022-12-28T01:50:07;5.40;1.00
2973;DHT22;1496;51.404;7.232;2022-12-28T01:52:41;5.30;1.00
2973;DHT22;1496;51.404;7.232;2022-12-28T01:55:23;5.40;1.00
2973;DHT22;1496;51.404;7.232;2022-12-28T01:58:21;5.40;1.00
2973;DHT22;1496;51.404;7.232;2022-12-28T02:00:47;5.50;1.00
2973;DHT22;1496;51.404;7.232;2022-12-28T02:03:25;5.50;1.00
2973;DHT22;1496;51.404;7.232;2022-12-28T02:05:54;5.50;99.90
2973;DHT22;1496;51.404;7.232;2022-12-28T02:08:32;5.60;99.90
2973;DHT22;1496;51.404;7.232;2022-12-28T02:11:01;5.60;99.90
2973;DHT22;1496;51.404;7.232;2022-12-28T02:13:29;5.60;99.90
2973;DHT22;1496;51.404;7.232;2022-12-28T02:15:58;5.70;99.90
2973;DHT22;1496;51.404;7.232;2022-12-28T02:18:26;5.70;99.90
2973;DHT22;1496;51.404;7.232;2022-12-28T02:27:15;5.90;99.90
2973;DHT22;1496;51.404;7.232;2022-12-28T02:30:09;5.90;99.90
2973;DHT22;1496;51.404;7.232;2022-12-28T02:35:33;5.90;99.90
2973;DHT22;1496;51.404;7.232;2022-12-28T02:40:54;6.00;99.90
2973;DHT22;1496;51.404;7.232;2022-12-28T02:43:23;6.00;99.90
2973;DHT22;1496;51.404;7.232;2022-12-28T02:45:49;6.00;99.90
2973;DHT22;1496;51.404;7.232;2022-12-28T02:48:45;6.00;99.90
2973;DHT22;1496;51.404;7.232;2022-12-28T03:00:17;6.10;99.90
2973;DHT22;1496;51.404;7.232;2022-12-28T03:02:56;6.10;99.90
2973;DHT22;1496;51.404;7.232;2022-12-28T03:05:36;6.10;99.90
2973;DHT22;1496;51.404;7.232;2022-12-28T03:08:54;6.10;99.90
2973;DHT22;1496;51.404;7.232;2022-12-28T03:11:38;6.10;99.90
2973;DHT22;1496;51.404;7.232;2022-12-28T03:14:13;6.10;1.00
2973;DHT22;1496;51.404;7.232;2022-12-28T03:16:46;6.10;1.00
2973;DHT22;1496;51.404;7.232;2022-12-28T03:19:40;6.10;1.00
2973;DHT22;1496;51.404;7.232;2022-12-28T03:22:28;6.10;1.00
2973;DHT22;1496;51.404;7.232;2022-12-28T03:25:17;6.10;1.00
2973;DHT22;1496;51.404;7.232;2022-12-28T03:28:06;6.10;1.00
2973;DHT22;1496;51.404;7.232;2022-12-28T03:30:56;6.10;1.00
2973;DHT22;1496;51.404;7.232;2022-12-28T03:33:45;6.10;1.00
2973;DHT22;1496;51.404;7.232;2022-12-28T03:39:42;6.10;1.00
2973;DHT22;1496;51.404;7.232;2022-12-28T03:48:00;6.10;1.00
2973;DHT22;1496;51.404;7.232;2022-12-28T03:50:28;6.10;99.90
2973;DHT22;1496;51.404;7.232;2022-12-28T03:52:57;6.00;99.90
2973;DHT22;1496;51.404;7.232;2022-12-28T03:55:24;6.00;99.90
2973;DHT22;1496;51.404;7.232;2022-12-28T03:57:51;6.10;99.90
2973;DHT22;1496;51.404;7.232;2022-12-28T04:00:24;6.10;99.90
2973;DHT22;1496;51.404;7.232;2022-12-28T04:02:53;6.10;99.90
2973;DHT22;1496;51.404;7.232;2022-12-28T04:05:20;6.10;84.30
2973;DHT22;1496;51.404;7.232;2022-12-28T04:07:48;6.20;1.00
2973;DHT22;1496;51.404;7.232;2022-12-28T04:10:15;6.20;1.00
2973;DHT22;1496;51.404;7.232;2022-12-28T04:12:42;6.20;1.00
2973;DHT22;1496;51.404;7.232;2022-12-28T04:15:40;6.30;1.00
2973;DHT22;1496;51.404;7.232;2022-12-28T04:18:09;6.30;1.00
2973;DHT22;1496;51.404;7.232;2022-12-28T04:20:38;6.30;1.00
2973;DHT22;1496;51.404;7.232;2022-12-28T04:23:04;6.30;1.00
2973;DHT22;1496;51.404;7.232;2022-12-28T04:25:32;6.30;1.00
2973;DHT22;1496;51.404;7.232;2022-12-28T04:28:00;6.40;1.00
2973;DHT22;1496;51.404;7.232;2022-12-28T04:30:58;6.40;1.00
2973;DHT22;1496;51.404;7.232;2022-12-28T04:33:27;6.40;1.00
2973;DHT22;1496;51.404;7.232;2022-12-28T04:36:02;6.40;1.00
2973;DHT22;1496;51.404;7.232;2022-12-28T04:38:28;6.40;1.00
2973;DHT22;1496;51.404;7.232;2022-12-28T04:40:56;6.50;1.00
2973;DHT22;1496;51.404;7.232;2022-12-28T04:43:23;6.50;1.00
2973;DHT22;1496;51.404;7.232;2022-12-28T04:45:57;6.50;1.00
2973;DHT22;1496;51.404;7.232;2022-12-28T04:48:25;6.50;1.00
2973;DHT22;1496;51.404;7.232;2022-12-28T04:50:52;6.50;1.00
2973;DHT22;1496;51.404;7.232;2022-12-28T04:53:21;6.50;1.00
2973;DHT22;1496;51.404;7.232;2022-12-28T04:55:47;6.40;99.90
2973;DHT22;1496;51.404;7.232;2022-12-28T04:58:13;6.50;99.90
2973;DHT22;1496;51.404;7.232;2022-12-28T05:00:40;6.40;99.90
2973;DHT22;1496;51.404;7.232;2022-12-28T05:03:07;6.40;1.00
2973;DHT22;1496;51.404;7.232;2022-12-28T05:05:36;6.40;99.90
2973;DHT22;1496;51.404;7.232;2022-12-28T05:08:02;6.40;1.00
2973;DHT22;1496;51.404;7.232;2022-12-28T05:10:29;6.40;99.90
2973;DHT22;1496;51.404;7.232;2022-12-28T05:12:55;6.40;99.90
2973;DHT22;1496;51.404;7.232;2022-12-28T05:15:22;6.40;99.90
2973;DHT22;1496;51.404;7.232;2022-12-28T05:17:49;6.40;99.90
2973;DHT22;1496;51.404;7.232;2022-12-28T05:20:15;6.40;99.90
2973;DHT22;1496;51.404;7.232;2022-12-28T05:22:43;6.40;99.90
2973;DHT22;1496;51.404;7.232;2022-12-28T05:25:10;6.40;99.90
2973;DHT22;1496;51.404;7.232;2022-12-28T05:27:37;6.40;99.90
2973;DHT22;1496;51.404;7.232;2022-12-28T05:30:05;6.50;99.90
2973;DHT22;1496;51.404;7.232;2022-12-28T05:32:31;6.50;99.90
2973;DHT22;1496;51.404;7.232;2022-12-28T05:34:58;6.50;99.90
2973;DHT22;1496;51.404;7.232;2022-12-28T05:37:24;6.50;99.90
2973;DHT22;1496;51.404;7.232;2022-12-28T05:39:50;6.50;99.90
2973;DHT22;1496;51.404;7.232;2022-12-28T05:42:17;6.50;99.90
2973;DHT22;1496;51.404;7.232;2022-12-28T05:44:44;6.50;99.90
2973;DHT22;1496;51.404;7.232;2022-12-28T05:47:11;6.50;99.90
2973;DHT22;1496;51.404;7.232;2022-12-28T05:49:40;6.60;99.90
2973;DHT22;1496;51.404;7.232;2022-12-28T05:52:08;6.50;99.90
2973;DHT22;1496;51.404;7.232;2022-12-28T05:54:35;6.50;99.90
2973;DHT22;1496;51.404;7.232;2022-12-28T05:57:00;6.50;99.90
2973;DHT22;1496;51.404;7.232;2022-12-28T05:59:27;6.50;99.90
2973;DHT22;1496;51.404;7.232;2022-12-28T06:01:53;6.50;99.90
2973;DHT22;1496;51.404;7.232;2022-12-28T06:04:19;6.50;99.90
2973;DHT22;1496;51.404;7.232;2022-12-28T06:06:47;6.50;99.90
2973;DHT22;1496;51.404;7.232;2022-12-28T06:09:14;6.60;99.90
2973;DHT22;1496;51.404;7.232;2022-12-28T06:11:42;6.60;99.90
2973;DHT22;1496;51.404;7.232;2022-12-28T06:14:10;6.50;99.90
2973;DHT22;1496;51.404;7.232;2022-12-28T06:16:40;6.60;99.90
2973;DHT22;1496;51.404;7.232;2022-12-28T06:19:10;6.60;99.90
2973;DHT22;1496;51.404;7.232;2022-12-28T06:21:39;6.60;99.90
2973;DHT22;1496;51.404;7.232;2022-12-28T06:24:09;6.60;99.90
2973;DHT22;1496;51.404;7.232;2022-12-28T06:26:37;6.60;99.90
2973;DHT22;1496;51.404;7.232;2022-12-28T06:29:05;6.60;99.90
2973;DHT22;1496;51.404;7.232;2022-12-28T06:31:36;6.60;99.90
2973;DHT22;1496;51.404;7.232;2022-12-28T06:34:06;6.60;99.90
2973;DHT22;1496;51.404;7.232;2022-12-28T06:36:39;6.60;99.90
2973;DHT22;1496;51.404;7.232;2022-12-28T06:39:08;6.60;99.90
2973;DHT22;1496;51.404;7.232;2022-12-28T06:41:35;6.60;99.90
2973;DHT22;1496;51.404;7.232;2022-12-28T06:44:05;6.60;99.90
2973;DHT22;1496;51.404;7.232;2022-12-28T06:46:32;6.60;99.90
2973;DHT22;1496;51.404;7.232;2022-12-28T06:49:00;6.60;99.90
2973;DHT22;1496;51.404;7.232;2022-12-28T06:51:29;6.60;99.90
2973;DHT22;1496;51.404;7.232;2022-12-28T06:53:56;6.60;99.90
2973;DHT22;1496;51.404;7.232;2022-12-28T06:56:26;6.70;99.90
2973;DHT22;1496;51.404;7.232;2022-12-28T06:58:54;6.60;99.90
2973;DHT22;1496;51.404;7.232;2022-12-28T07:01:24;6.60;99.90
2973;DHT22;1496;51.404;7.232;2022-12-28T07:03:52;6.70;99.90
2973;DHT22;1496;51.404;7.232;2022-12-28T07:06:23;6.70;99.90
2973;DHT22;1496;51.404;7.232;2022-12-28T07:08:51;6.70;99.90
2973;DHT22;1496;51.404;7.232;2022-12-28T07:11:23;6.70;99.90
2973;DHT22;1496;51.404;7.232;2022-12-28T07:13:51;6.70;99.90
2973;DHT22;1496;51.404;7.232;2022-12-28T07:16:21;6.70;99.90
2973;DHT22;1496;51.404;7.232;2022-12-28T07:18:48;6.70;99.90
2973;DHT22;1496;51.404;7.232;2022-12-28T07:21:21;6.70;99.90
2973;DHT22;1496;51.404;7.232;2022-12-28T07:23:53;6.70;99.90
2973;DHT22;1496;51.404;7.232;2022-12-28T07:26:25;6.70;99.90
2973;DHT22;1496;51.404;7.232;2022-12-28T07:28:54;6.70;99.90
2973;DHT22;1496;51.404;7.232;2022-12-28T07:31:30;6.80;99.90
2973;DHT22;1496;51.404;7.232;2022-12-28T07:33:59;6.80;99.90
2973;DHT22;1496;51.404;7.232;2022-12-28T07:36:29;6.80;99.90
2973;DHT22;1496;51.404;7.232;2022-12-28T07:38:58;6.80;99.90
2973;DHT22;1496;51.404;7.232;2022-12-28T07:41:27;6.90;99.90
2973;DHT22;1496;51.404;7.232;2022-12-28T07:43:57;6.90;99.90
2973;DHT22;1496;51.404;7.232;2022-12-28T07:46:26;6.90;99.90
2973;DHT22;1496;51.404;7.232;2022-12-28T07:48:54;7.00;99.90
2973;DHT22;1496;51.404;7.232;2022-12-28T07:51:29;7.00;99.90
2973;DHT22;1496;51.404;7.232;2022-12-28T07:54:26;7.00;99.90
2973;DHT22;1496;51.404;7.232;2022-12-28T07:56:54;7.00;99.90
2973;DHT22;1496;51.404;7.232;2022-12-28T07:59:20;7.00;99.90
2973;DHT22;1496;51.404;7.232;2022-12-28T08:01:49;7.00;99.90
2973;DHT22;1496;51.404;7.232;2022-12-28T08:04:16;7.00;99.90
2973;DHT22;1496;51.404;7.232;2022-12-28T08:06:44;7.00;99.90
2973;DHT22;1496;51.404;7.232;2022-12-28T08:09:12;7.00;99.90
2973;DHT22;1496;51.404;7.232;2022-12-28T08:11:44;7.00;99.90
2973;DHT22;1496;51.404;7.232;2022-12-28T08:14:11;7.00;99.90
2973;DHT22;1496;51.404;7.232;2022-12-28T08:16:40;7.10;99.90
2973;DHT22;1496;51.404;7.232;2022-12-28T08:19:07;7.10;99.90
2973;DHT22;1496;51.404;7.232;2022-12-28T08:21:40;7.10;99.90
2973;DHT22;1496;51.404;7.232;2022-12-28T08:24:08;7.10;99.90
2973;DHT22;1496;51.404;7.232;2022-12-28T08:26:38;7.10;99.90
2973;DHT22;1496;51.404;7.232;2022-12-28T08:29:10;7.10;99.90
2973;DHT22;1496;51.404;7.232;2022-12-28T08:31:40;7.20;99.90
2973;DHT22;1496;51.404;7.232;2022-12-28T08:34:11;7.20;99.90
2973;DHT22;1496;51.404;7.232;2022-12-28T08:36:38;7.20;99.90
2973;DHT22;1496;51.404;7.232;2022-12-28T08:39:07;7.20;99.90
2973;DHT22;1496;51.404;7.232;2022-12-28T08:41:35;7.20;99.90
2973;DHT22;1496;51.404;7.232;2022-12-28T08:44:03;7.20;99.90
2973;DHT22;1496;51.404;7.232;2022-12-28T08:46:32;7.20;99.90
2973;DHT22;1496;51.404;7.232;2022-12-28T08:48:59;7.20;99.90
2973;DHT22;1496;51.404;7.232;2022-12-28T08:51:34;7.20;99.90
2973;DHT22;1496;51.404;7.232;2022-12-28T08:54:03;7.20;99.90
2973;DHT22;1496;51.404;7.232;2022-12-28T08:56:33;7.30;99.90
2973;DHT22;1496;51.404;7.232;2022-12-28T08:59:01;7.30;99.90
2973;DHT22;1496;51.404;7.232;2022-12-28T09:01:32;7.30;99.90
2973;DHT22;1496;51.404;7.232;2022-12-28T09:04:00;7.30;99.90
2973;DHT22;1496;51.404;7.232;2022-12-28T09:06:36;7.40;99.90
2973;DHT22;1496;51.404;7.232;2022-12-28T09:09:07;7.40;99.90
2973;DHT22;1496;51.404;7.232;2022-12-28T09:11:35;7.40;99.90
2973;DHT22;1496;51.404;7.232;2022-12-28T09:14:04;7.40;99.90
2973;DHT22;1496;51.404;7.232;2022-12-28T09:16:32;7.50;99.90
2973;DHT22;1496;51.404;7.232;2022-12-28T09:19:00;7.50;99.90
2973;DHT22;1496;51.404;7.232;2022-12-28T09:21:31;7.50;99.90
2973;DHT22;1496;51.404;7.232;2022-12-28T09:23:58;7.50;99.90
2973;DHT22;1496;51.404;7.232;2022-12-28T09:26:33;7.50;99.90
2973;DHT22;1496;51.404;7.232;2022-12-28T09:29:02;7.50;99.90
2973;DHT22;1496;51.404;7.232;2022-12-28T09:31:30;7.60;99.90
2973;DHT22;1496;51.404;7.232;2022-12-28T09:33:57;7.60;99.90
2973;DHT22;1496;51.404;7.232;2022-12-28T09:36:34;7.60;99.90
2973;DHT22;1496;51.404;7.232;2022-12-28T09:39:10;7.60;99.90
2973;DHT22;1496;51.404;7.232;2022-12-28T09:41:52;7.70;99.90
2973;DHT22;1496;51.404;7.232;2022-12-28T09:44:44;7.70;99.90
2973;DHT22;1496;51.404;7.232;2022-12-28T09:47:38;7.80;99.90
2973;DHT22;1496;51.404;7.232;2022-12-28T09:50:26;7.70;99.90
2973;DHT22;1496;51.404;7.232;2022-12-28T09:53:32;7.80;99.90
2973;DHT22;1496;51.404;7.232;2022-12-28T09:56:14;7.80;99.90
2973;DHT22;1496;51.404;7.232;2022-12-28T09:58:44;7.80;99.90
2973;DHT22;1496;51.404;7.232;2022-12-28T10:01:13;7.90;99.90
2973;DHT22;1496;51.404;7.232;2022-12-28T10:03:43;7.90;99.90
2973;DHT22;1496;51.404;7.232;2022-12-28T10:06:14;8.00;99.90
2973;DHT22;1496;51.404;7.232;2022-12-28T10:09:02;8.00;99.90
2973;DHT22;1496;51.404;7.232;2022-12-28T10:11:40;8.00;99.90
2973;DHT22;1496;51.404;7.232;2022-12-28T10:14:37;8.00;99.90
2973;DHT22;1496;51.404;7.232;2022-12-28T10:17:04;8.00;99.90
2973;DHT22;1496;51.404;7.232;2022-12-28T10:19:32;8.00;99.90
2973;DHT22;1496;51.404;7.232;2022-12-28T10:22:02;8.00;99.90
2973;DHT22;1496;51.404;7.232;2022-12-28T10:24:30;8.10;99.90
2973;DHT22;1496;51.404;7.232;2022-12-28T10:26:59;8.10;99.90
2973;DHT22;1496;51.404;7.232;2022-12-28T10:29:30;8.10;99.90
2973;DHT22;1496;51.404;7.232;2022-12-28T10:32:04;8.10;99.90
2973;DHT22;1496;51.404;7.232;2022-12-28T10:34:34;8.20;99.90
2973;DHT22;1496;51.404;7.232;2022-12-28T10:37:19;8.20;99.90
2973;DHT22;1496;51.404;7.232;2022-12-28T10:39:53;8.20;99.90
2973;DHT22;1496;51.404;7.232;2022-12-28T10:42:38;8.20;99.90
2973;DHT22;1496;51.404;7.232;2022-12-28T10:45:17;8.30;99.90
2973;DHT22;1496;51.404;7.232;2022-12-28T10:47:51;8.30;99.90
2973;DHT22;1496;51.404;7.232;2022-12-28T10:50:39;8.30;99.90
2973;DHT22;1496;51.404;7.232;2022-12-28T10:53:27;8.40;99.90
2973;DHT22;1496;51.404;7.232;2022-12-28T10:58:41;8.40;99.90
2973;DHT22;1496;51.404;7.232;2022-12-28T11:03:39;8.40;99.90
2973;DHT22;1496;51.404;7.232;2022-12-28T11:06:18;8.40;99.90
2973;DHT22;1496;51.404;7.232;2022-12-28T11:09:05;8.50;99.90
2973;DHT22;1496;51.404;7.232;2022-12-28T11:11:32;8.50;99.90
2973;DHT22;1496;51.404;7.232;2022-12-28T11:16:42;8.60;99.90
2973;DHT22;1496;51.404;7.232;2022-12-28T11:19:10;8.60;99.90
2973;DHT22;1496;51.404;7.232;2022-12-28T11:21:38;8.50;99.90
2973;DHT22;1496;51.404;7.232;2022-12-28T11:24:10;8.60;99.90
2973;DHT22;1496;51.404;7.232;2022-12-28T11:26:36;8.60;99.90
2973;DHT22;1496;51.404;7.232;2022-12-28T11:29:04;8.60;99.90
2973;DHT22;1496;51.404;7.232;2022-12-28T11:31:33;8.60;99.90
2973;DHT22;1496;51.404;7.232;2022-12-28T11:34:02;8.50;99.90
2973;DHT22;1496;51.404;7.232;2022-12-28T11:36:36;8.60;99.90
2973;DHT22;1496;51.404;7.232;2022-12-28T11:39:30;8.50;99.90
2973;DHT22;1496;51.404;7.232;2022-12-28T11:42:01;8.50;99.90
2973;DHT22;1496;51.404;7.232;2022-12-28T11:47:20;8.50;99.90
2973;DHT22;1496;51.404;7.232;2022-12-28T11:49:48;8.50;99.90
2973;DHT22;1496;51.404;7.232;2022-12-28T11:57:43;8.40;99.90
2973;DHT22;1496;51.404;7.232;2022-12-28T12:03:02;8.30;99.90
2973;DHT22;1496;51.404;7.232;2022-12-28T12:10:45;8.30;99.90
2973;DHT22;1496;51.404;7.232;2022-12-28T12:16:01;8.30;99.90
2973;DHT22;1496;51.404;7.232;2022-12-28T12:19:12;8.20;99.90
2973;DHT22;1496;51.404;7.232;2022-12-28T12:21:43;8.20;99.90
2973;DHT22;1496;51.404;7.232;2022-12-28T12:24:56;8.20;99.90
2973;DHT22;1496;51.404;7.232;2022-12-28T12:30:05;8.20;99.90
2973;DHT22;1496;51.404;7.232;2022-12-28T12:32:44;8.10;99.90
2973;DHT22;1496;51.404;7.232;2022-12-28T12:35:14;8.20;99.90
2973;DHT22;1496;51.404;7.232;2022-12-28T12:37:55;8.20;99.90
2973;DHT22;1496;51.404;7.232;2022-12-28T12:46:03;8.30;99.90
2973;DHT22;1496;51.404;7.232;2022-12-28T12:49:04;8.30;99.90
2973;DHT22;1496;51.404;7.232;2022-12-28T12:54:51;8.30;99.90
2973;DHT22;1496;51.404;7.232;2022-12-28T13:06:14;8.20;99.90
2973;DHT22;1496;51.404;7.232;2022-12-28T13:08:55;8.30;99.90
2973;DHT22;1496;51.404;7.232;2022-12-28T13:11:23;8.20;99.90
2973;DHT22;1496;51.404;7.232;2022-12-28T13:13:52;8.20;99.90
2973;DHT22;1496;51.404;7.232;2022-12-28T13:16:30;8.20;99.90
2973;DHT22;1496;51.404;7.232;2022-12-28T13:18:58;8.20;99.90
2973;DHT22;1496;51.404;7.232;2022-12-28T13:21:29;8.20;99.90
2973;DHT22;1496;51.404;7.232;2022-12-28T13:23:57;8.10;99.90
2973;DHT22;1496;51.404;7.232;2022-12-28T13:26:28;8.10;99.90
2973;DHT22;1496;51.404;7.232;2022-12-28T13:29:01;8.10;99.90
2973;DHT22;1496;51.404;7.232;2022-12-28T13:31:47;8.10;99.90
2973;DHT22;1496;51.404;7.232;2022-12-28T13:36:53;8.10;99.90
2973;DHT22;1496;51.404;7.232;2022-12-28T13:39:24;8.10;99.90
2973;DHT22;1496;51.404;7.232;2022-12-28T13:44:54;8.00;99.90
2973;DHT22;1496;51.404;7.232;2022-12-28T13:47:41;8.00;99.90
2973;DHT22;1496;51.404;7.232;2022-12-28T13:50:27;8.00;99.90
2973;DHT22;1496;51.404;7.232;2022-12-28T13:53:01;8.00;99.90
2973;DHT22;1496;51.404;7.232;2022-12-28T13:56:02;8.00;99.90
2973;DHT22;1496;51.404;7.232;2022-12-28T13:58:38;8.00;99.90
2973;DHT22;1496;51.404;7.232;2022-12-28T14:01:11;8.00;99.90
2973;DHT22;1496;51.404;7.232;2022-12-28T14:03:40;8.00;99.90
2973;DHT22;1496;51.404;7.232;2022-12-28T14:06:09;8.10;99.90
2973;DHT22;1496;51.404;7.232;2022-12-28T14:08:38;8.00;99.90
2973;DHT22;1496;51.404;7.232;2022-12-28T14:11:06;8.10;99.90
2973;DHT22;1496;51.404;7.232;2022-12-28T14:13:35;8.10;99.90
2973;DHT22;1496;51.404;7.232;2022-12-28T14:16:03;8.00;99.90
2973;DHT22;1496;51.404;7.232;2022-12-28T14:18:30;8.10;99.90
2973;DHT22;1496;51.404;7.232;2022-12-28T14:20:59;8.00;99.90
2973;DHT22;1496;51.404;7.232;2022-12-28T14:23:34;8.10;99.90
2973;DHT22;1496;51.404;7.232;2022-12-28T14:26:08;8.00;99.90
2973;DHT22;1496;51.404;7.232;2022-12-28T14:28:48;8.10;99.90
2973;DHT22;1496;51.404;7.232;2022-12-28T14:31:30;8.10;99.90
2973;DHT22;1496;51.404;7.232;2022-12-28T14:34:00;8.10;99.90
2973;DHT22;1496;51.404;7.232;2022-12-28T14:36:31;8.10;99.90
2973;DHT22;1496;51.404;7.232;2022-12-28T14:39:01;8.10;99.90
2973;DHT22;1496;51.404;7.232;2022-12-28T14:41:37;8.10;99.90
2973;DHT22;1496;51.404;7.232;2022-12-28T14:44:14;8.20;99.90
2973;DHT22;1496;51.404;7.232;2022-12-28T14:46:41;8.10;99.90
2973;DHT22;1496;51.404;7.232;2022-12-28T14:49:43;8.20;99.90
2973;DHT22;1496;51.404;7.232;2022-12-28T14:54:47;8.10;99.90
2973;DHT22;1496;51.404;7.232;2022-12-28T14:57:42;8.20;99.90
2973;DHT22;1496;51.404;7.232;2022-12-28T15:00:31;8.20;99.90
2973;DHT22;1496;51.404;7.232;2022-12-28T15:03:17;8.20;99.90
2973;DHT22;1496;51.404;7.232;2022-12-28T15:05:50;8.20;99.90
2973;DHT22;1496;51.404;7.232;2022-12-28T15:08:18;8.20;99.90
2973;DHT22;1496;51.404;7.232;2022-12-28T15:10:56;8.30;99.90
2973;DHT22;1496;51.404;7.232;2022-12-28T15:13:25;8.30;99.90
2973;DHT22;1496;51.404;7.232;2022-12-28T15:15:57;8.30;99.90
2973;DHT22;1496;51.404;7.232;2022-12-28T15:18:25;8.40;99.90
2973;DHT22;1496;51.404;7.232;2022-12-28T15:20:52;8.30;99.90
2973;DHT22;1496;51.404;7.232;2022-12-28T15:23:19;8.30;99.90
2973;DHT22;1496;51.404;7.232;2022-12-28T15:25:46;8.30;99.90
2973;DHT22;1496;51.404;7.232;2022-12-28T15:28:14;8.30;99.90
2973;DHT22;1496;51.404;7.232;2022-12-28T15:30:42;8.30;99.90
2973;DHT22;1496;51.404;7.232;2022-12-28T15:33:10;8.40;99.90
2973;DHT22;1496;51.404;7.232;2022-12-28T15:35:37;8.40;99.90
2973;DHT22;1496;51.404;7.232;2022-12-28T15:38:05;8.40;99.90
2973;DHT22;1496;51.404;7.232;2022-12-28T15:40:31;8.50;99.90
2973;DHT22;1496;51.404;7.232;2022-12-28T15:42:59;8.50;99.90
2973;DHT22;1496;51.404;7.232;2022-12-28T15:45:25;8.50;36.20
2973;DHT22;1496;51.404;7.232;2022-12-28T15:47:53;8.40;99.90
2973;DHT22;1496;51.404;7.232;2022-12-28T15:50:20;8.40;99.90
2973;DHT22;1496;51.404;7.232;2022-12-28T15:52:47;8.40;99.90
2973;DHT22;1496;51.404;7.232;2022-12-28T15:55:14;8.50;56.00
2973;DHT22;1496;51.404;7.232;2022-12-28T15:57:41;8.50;49.70
2973;DHT22;1496;51.404;7.232;2022-12-28T16:00:09;8.50;99.90
2973;DHT22;1496;51.404;7.232;2022-12-28T16:02:36;8.50;99.90
2973;DHT22;1496;51.404;7.232;2022-12-28T16:05:03;8.50;43.10
2973;DHT22;1496;51.404;7.232;2022-12-28T16:07:29;8.50;1.00
2973;DHT22;1496;51.404;7.232;2022-12-28T16:09:56;8.50;1.00
2973;DHT22;1496;51.404;7.232;2022-12-28T16:12:22;8.50;99.90
2973;DHT22;1496;51.404;7.232;2022-12-28T16:14:50;8.40;99.90
2973;DHT22;1496;51.404;7.232;2022-12-28T16:17:18;8.40;99.90
2973;DHT22;1496;51.404;7.232;2022-12-28T16:19:45;8.40;99.90
2973;DHT22;1496;51.404;7.232;2022-12-28T16:22:12;8.40;99.90
2973;DHT22;1496;51.404;7.232;2022-12-28T16:24:40;8.40;99.90
2973;DHT22;1496;51.404;7.232;2022-12-28T16:27:07;8.50;99.90
2973;DHT22;1496;51.404;7.232;2022-12-28T16:29:35;8.50;99.90
2973;DHT22;1496;51.404;7.232;2022-12-28T16:32:01;8.50;99.90
2973;DHT22;1496;51.404;7.232;2022-12-28T16:34:28;8.50;99.90
2973;DHT22;1496;51.404;7.232;2022-12-28T16:36:57;8.50;99.90
2973;DHT22;1496;51.404;7.232;2022-12-28T16:39:27;8.50;99.90
2973;DHT22;1496;51.404;7.232;2022-12-28T16:41:54;8.50;99.90
2973;DHT22;1496;51.404;7.232;2022-12-28T16:44:24;8.50;99.90
2973;DHT22;1496;51.404;7.232;2022-12-28T16:46:56;8.50;99.90
2973;DHT22;1496;51.404;7.232;2022-12-28T16:49:25;8.50;99.90
2973;DHT22;1496;51.404;7.232;2022-12-28T16:51:53;8.60;99.90
2973;DHT22;1496;51.404;7.232;2022-12-28T16:54:22;8.60;99.90
2973;DHT22;1496;51.404;7.232;2022-12-28T16:56:50;8.60;99.90
2973;DHT22;1496;51.404;7.232;2022-12-28T16:59:23;8.70;99.90
2973;DHT22;1496;51.404;7.232;2022-12-28T17:01:51;8.70;99.90
2973;DHT22;1496;51.404;7.232;2022-12-28T17:04:19;8.80;99.90
2973;DHT22;1496;51.404;7.232;2022-12-28T17:06:48;8.60;99.90
2973;DHT22;1496;51.404;7.232;2022-12-28T17:09:17;8.70;99.90
2973;DHT22;1496;51.404;7.232;2022-12-28T17:11:48;8.70;99.90
2973;DHT22;1496;51.404;7.232;2022-12-28T17:14:18;8.70;99.90
2973;DHT22;1496;51.404;7.232;2022-12-28T17:16:45;8.70;99.90
2973;DHT22;1496;51.404;7.232;2022-12-28T17:19:12;8.70;99.90
2973;DHT22;1496;51.404;7.232;2022-12-28T17:21:39;8.60;99.90
2973;DHT22;1496;51.404;7.232;2022-12-28T17:24:06;8.50;99.90
2973;DHT22;1496;51.404;7.232;2022-12-28T17:26:33;8.40;99.90
2973;DHT22;1496;51.404;7.232;2022-12-28T17:29:00;8.30;99.90
2973;DHT22;1496;51.404;7.232;2022-12-28T17:31:27;8.30;99.90
2973;DHT22;1496;51.404;7.232;2022-12-28T17:33:57;8.20;99.90
2973;DHT22;1496;51.404;7.232;2022-12-28T17:36:24;8.20;99.90
2973;DHT22;1496;51.404;7.232;2022-12-28T17:38:51;8.20;99.90
2973;DHT22;1496;51.404;7.232;2022-12-28T17:41:21;8.20;99.90
2973;DHT22;1496;51.404;7.232;2022-12-28T17:43:53;8.20;99.90
2973;DHT22;1496;51.404;7.232;2022-12-28T17:46:21;8.10;1.00
2973;DHT22;1496;51.404;7.232;2022-12-28T17:48:53;8.10;1.00
2973;DHT22;1496;51.404;7.232;2022-12-28T17:51:20;8.10;1.00
2973;DHT22;1496;51.404;7.232;2022-12-28T17:53:49;8.10;1.00
2973;DHT22;1496;51.404;7.232;2022-12-28T17:56:17;8.00;1.00
2973;DHT22;1496;51.404;7.232;2022-12-28T17:58:43;8.00;1.00
2973;DHT22;1496;51.404;7.232;2022-12-28T18:01:11;8.00;1.00
2973;DHT22;1496;51.404;7.232;2022-12-28T18:03:39;8.00;1.00
2973;DHT22;1496;51.404;7.232;2022-12-28T18:06:06;8.00;1.00
2973;DHT22;1496;51.404;7.232;2022-12-28T18:08:33;8.00;1.00
2973;DHT22;1496;51.404;7.232;2022-12-28T18:10:59;7.90;1.00
2973;DHT22;1496;51.404;7.232;2022-12-28T18:13:25;7.90;1.00
2973;DHT22;1496;51.404;7.232;2022-12-28T18:15:52;7.90;1.00